Time;durP1;ratioP1;P1;durP2;ratioP2;P2;SDS_P1;SDS_P2;PMS_P1;PMS_P2;Temp;Humidity;BMP_temperature;BMP_pressure;BME280_temperature;BME280_humidity;BME280_pressure;Samples;Min_cycle;Max_cycle;Signal;HPM_P1;HPM_P2
2022/10/09 00:01:07;;;;;;;5.70;3.97;;;;;;;;;;5044890;28;20431;-80
2022/10/09 00:03:33;;;;;;;3.73;3.60;;;;;;;;;;5031164;28;20474;-79
2022/10/09 00:05:59;;;;;;;3.70;3.40;;;;;;;;;;5046707;28;20428;-79
2022/10/09 00:08:25;;;;;;;7.67;3.50;;;;;;;;;;5042113;28;20450;-79
2022/10/09 00:10:51;;;;;;;5.20;4.30;;;;;;;;;;5046864;28;20441;-80
2022/10/09 00:13:17;;;;;;;4.43;4.17;;;;;;;;;;5040635;28;21005;-79
2022/10/09 00:15:44;;;;;;;4.50;3.70;;;;;;;;;;5046591;28;20441;-80
2022/10/09 00:18:11;;;;;;;3.37;3.20;;;;;;;;;;5043135;28;20955;-80
2022/10/09 00:20:38;;;;;;;4.27;3.90;;;;;;;;;;5044258;28;20957;-79
2022/10/09 00:23:05;;;;;;;3.90;3.50;;;;;;;;;;5035371;28;20534;-79
2022/10/09 00:25:31;;;;;;;7.33;5.03;;;;;;;;;;5036902;28;20880;-79
2022/10/09 00:27:57;;;;;;;5.30;4.50;;;;;;;;;;5037951;28;20470;-80
2022/10/09 00:30:23;;;;;;;4.27;3.87;;;;;;;;;;5032962;28;20847;-78
2022/10/09 00:32:49;;;;;;;5.50;4.60;;;;;;;;;;5043155;28;20441;-79
2022/10/09 00:35:15;;;;;;;4.70;4.50;;;;;;;;;;5038902;28;20913;-78
2022/10/09 00:37:41;;;;;;;4.50;4.30;;;;;;;;;;5043184;28;20442;-79
2022/10/09 00:40:07;;;;;;;4.97;4.57;;;;;;;;;;5034943;28;20434;-79
2022/10/09 00:42:33;;;;;;;14.37;4.80;;;;;;;;;;5040514;28;20480;-80
2022/10/09 00:45:00;;;;;;;5.00;4.70;;;;;;;;;;5033334;28;20430;-81
2022/10/09 00:47:31;;;;;;;8.83;5.30;;;;;;;;;;5030006;28;20442;-79
2022/10/09 00:50:03;;;;;;;10.30;4.80;;;;;;;;;;5043854;28;20677;-78
2022/10/09 00:52:30;;;;;;;5.00;4.60;;;;;;;;;;5040989;28;21135;-80
2022/10/09 00:54:57;;;;;;;5.10;4.77;;;;;;;;;;5033967;28;20778;-79
2022/10/09 00:57:23;;;;;;;5.13;4.83;;;;;;;;;;5040896;28;20461;-79
2022/10/09 00:59:50;;;;;;;4.67;4.37;;;;;;;;;;5035127;28;20494;-80
2022/10/09 01:02:16;;;;;;;4.93;4.40;;;;;;;;;;5027746;28;20812;-79
2022/10/09 01:04:42;;;;;;;5.30;4.87;;;;;;;;;;5038075;28;20405;-80
2022/10/09 01:07:08;;;;;;;4.80;4.50;;;;;;;;;;5042451;28;20544;-79
2022/10/09 01:09:37;;;;;;;4.70;4.30;;;;;;;;;;5045069;28;20402;-79
2022/10/09 01:12:03;;;;;;;9.27;5.20;;;;;;;;;;5043137;28;20862;-78
2022/10/09 01:14:32;;;;;;;7.10;5.77;;;;;;;;;;5043878;28;20800;-80
2022/10/09 01:17:03;;;;;;;5.63;5.30;;;;;;;;;;5039455;28;20970;-79
2022/10/09 01:19:35;;;;;;;17.57;6.73;;;;;;;;;;5031371;28;20328;-80
2022/10/09 01:22:21;;;;;;;8.50;6.03;;;;;;;;;;5045083;28;20843;-80
2022/10/09 01:24:50;;;;;;;7.23;6.43;;;;;;;;;;5038306;28;20417;-80
2022/10/09 01:27:21;;;;;;;10.30;7.90;;;;;;;;;;5041760;28;20467;-81
2022/10/09 01:30:00;;;;;;;9.23;6.80;;;;;;;;;;5041024;28;20481;-80
2022/10/09 01:32:34;;;;;;;18.87;7.73;;;;;;;;;;5041198;28;20491;-79
2022/10/09 01:35:01;;;;;;;14.47;7.40;;;;;;;;;;5032198;28;20428;-79
2022/10/09 01:37:28;;;;;;;14.63;6.83;;;;;;;;;;5042123;28;20459;-79
2022/10/09 01:39:54;;;;;;;10.50;7.40;;;;;;;;;;5042067;28;20434;-79
2022/10/09 01:42:21;;;;;;;14.45;8.50;;;;;;;;;;5041530;28;21024;-81
2022/10/09 01:44:47;;;;;;;12.73;7.57;;;;;;;;;;5022285;28;20293;-79
2022/10/09 01:47:18;;;;;;;8.63;7.80;;;;;;;;;;5028355;28;20524;-79
2022/10/09 01:49:49;;;;;;;7.67;6.90;;;;;;;;;;5037668;28;20422;-80
2022/10/09 01:52:22;;;;;;;11.40;6.60;;;;;;;;;;5031436;28;20434;-79
2022/10/09 01:54:54;;;;;;;14.60;7.53;;;;;;;;;;5045869;28;20475;-79
2022/10/09 01:57:27;;;;;;;13.80;6.67;;;;;;;;;;5041094;28;20481;-80
2022/10/09 01:59:55;;;;;;;18.20;7.10;;;;;;;;;;5040620;28;20434;-79
2022/10/09 02:02:21;;;;;;;23.20;7.03;;;;;;;;;;5049004;28;20509;-80
2022/10/09 02:04:48;;;;;;;8.60;7.13;;;;;;;;;;5045699;28;20197;-79
2022/10/09 02:07:14;;;;;;;14.33;6.80;;;;;;;;;;5041453;28;20252;-79
2022/10/09 02:09:40;;;;;;;19.53;6.97;;;;;;;;;;5043539;28;20926;-80
2022/10/09 02:12:07;;;;;;;25.08;6.82;;;;;;;;;;5044968;28;20449;-79
2022/10/09 02:14:34;;;;;;;10.10;7.37;;;;;;;;;;5029632;28;20226;-79
2022/10/09 02:17:06;;;;;;;9.67;6.70;;;;;;;;;;5045107;28;20797;-80
2022/10/09 02:19:54;;;;;;;7.00;6.60;;;;;;;;;;5031226;28;20430;-81
2022/10/09 02:22:22;;;;;;;7.20;6.57;;;;;;;;;;5039283;28;20480;-79
2022/10/09 02:24:48;;;;;;;12.07;7.25;;;;;;;;;;5036596;28;20456;-79
2022/10/09 02:27:15;;;;;;;6.53;6.03;;;;;;;;;;5042130;28;20191;-78
2022/10/09 02:29:42;;;;;;;18.97;6.50;;;;;;;;;;5034858;28;20542;-79
2022/10/09 02:32:08;;;;;;;29.40;7.20;;;;;;;;;;5039054;28;20447;-79
2022/10/09 02:34:34;;;;;;;31.63;6.70;;;;;;;;;;5032015;28;20435;-80
2022/10/09 02:37:00;;;;;;;65.97;8.00;;;;;;;;;;5044559;28;20863;-80
2022/10/09 02:39:26;;;;;;;15.33;7.20;;;;;;;;;;5032822;28;20465;-80
2022/10/09 02:41:52;;;;;;;13.33;7.47;;;;;;;;;;5041758;28;20841;-80
2022/10/09 02:44:18;;;;;;;11.47;6.00;;;;;;;;;;5029397;28;20488;-79
2022/10/09 02:46:44;;;;;;;26.08;8.13;;;;;;;;;;5040957;28;20509;-80
2022/10/09 02:49:10;;;;;;;21.83;7.23;;;;;;;;;;5031572;28;20291;-81
2022/10/09 02:51:36;;;;;;;16.60;7.70;;;;;;;;;;5037070;28;20480;-80
2022/10/09 02:54:02;;;;;;;8.80;6.73;;;;;;;;;;5037557;28;20434;-80
2022/10/09 02:56:28;;;;;;;12.70;7.70;;;;;;;;;;5044132;28;20526;-80
2022/10/09 02:58:54;;;;;;;9.57;6.97;;;;;;;;;;5041815;28;20484;-80
2022/10/09 03:01:20;;;;;;;10.23;7.50;;;;;;;;;;5041685;28;20513;-80
2022/10/09 03:03:46;;;;;;;7.73;6.77;;;;;;;;;;5040569;28;20477;-80
2022/10/09 03:06:14;;;;;;;6.33;5.77;;;;;;;;;;5032055;28;20434;-80
2022/10/09 03:08:41;;;;;;;6.30;5.70;;;;;;;;;;5041208;28;20453;-79
2022/10/09 03:11:07;;;;;;;7.43;6.87;;;;;;;;;;5044827;28;20434;-79
2022/10/09 03:13:34;;;;;;;7.70;7.00;;;;;;;;;;5043818;28;20610;-79
2022/10/09 03:16:04;;;;;;;7.80;6.07;;;;;;;;;;5035621;28;20434;-79
2022/10/09 03:18:30;;;;;;;13.03;6.90;;;;;;;;;;5036023;28;20441;-79
2022/10/09 03:20:56;;;;;;;8.20;7.00;;;;;;;;;;5044282;28;20418;-79
2022/10/09 03:23:22;;;;;;;5.47;5.13;;;;;;;;;;5043335;28;20925;-79
2022/10/09 03:25:55;;;;;;;5.97;5.37;;;;;;;;;;5039195;28;20407;-80
2022/10/09 03:28:21;;;;;;;5.67;5.27;;;;;;;;;;5043953;28;20434;-79
2022/10/09 03:30:48;;;;;;;7.67;5.33;;;;;;;;;;5047397;28;20799;-79
2022/10/09 03:33:14;;;;;;;6.37;5.50;;;;;;;;;;5040503;28;20769;-79
2022/10/09 03:35:40;;;;;;;7.77;5.20;;;;;;;;;;5033940;28;20504;-79
2022/10/09 03:38:06;;;;;;;5.63;5.13;;;;;;;;;;5042759;28;20982;-80
2022/10/09 03:40:32;;;;;;;8.77;5.43;;;;;;;;;;5039762;28;20552;-80
2022/10/09 03:42:58;;;;;;;6.60;6.20;;;;;;;;;;5044162;28;20677;-80
2022/10/09 03:45:25;;;;;;;6.43;5.97;;;;;;;;;;5037636;28;20494;-79
2022/10/09 03:47:51;;;;;;;6.60;6.17;;;;;;;;;;5028142;28;20458;-80
2022/10/09 03:50:17;;;;;;;5.73;5.53;;;;;;;;;;5034683;28;20402;-80
2022/10/09 03:52:43;;;;;;;6.77;6.17;;;;;;;;;;5039120;28;20446;-80
2022/10/09 03:55:09;;;;;;;6.50;6.00;;;;;;;;;;5046367;28;20638;-79
2022/10/09 03:57:35;;;;;;;6.50;5.90;;;;;;;;;;5045281;28;20437;-79
2022/10/09 04:00:01;;;;;;;7.70;7.00;;;;;;;;;;5034100;28;20434;-79
2022/10/09 04:02:26;;;;;;;6.10;5.70;;;;;;;;;;5043758;28;20453;-79
2022/10/09 04:04:52;;;;;;;7.80;6.90;;;;;;;;;;5047719;28;20444;-79
2022/10/09 04:07:18;;;;;;;8.57;6.87;;;;;;;;;;5061843;28;20444;-79
2022/10/09 04:09:44;;;;;;;10.03;6.47;;;;;;;;;;5039350;28;20434;-80
2022/10/09 04:12:10;;;;;;;8.93;6.63;;;;;;;;;;5045895;28;20444;-79
2022/10/09 04:14:36;;;;;;;10.37;6.13;;;;;;;;;;5043366;28;20511;-79
2022/10/09 04:17:02;;;;;;;7.03;6.33;;;;;;;;;;5046614;28;20433;-80
2022/10/09 04:19:28;;;;;;;7.27;6.07;;;;;;;;;;5037058;28;20816;-79
2022/10/09 04:21:54;;;;;;;6.75;6.20;;;;;;;;;;5044770;28;20842;-80
2022/10/09 04:24:20;;;;;;;8.00;5.97;;;;;;;;;;5041718;28;20451;-80
2022/10/09 04:26:46;;;;;;;7.20;6.60;;;;;;;;;;5046746;28;20426;-80
2022/10/09 04:29:12;;;;;;;7.10;6.47;;;;;;;;;;5043056;28;20496;-80
2022/10/09 04:31:38;;;;;;;8.53;5.90;;;;;;;;;;5046948;28;20831;-80
2022/10/09 04:34:04;;;;;;;6.13;5.70;;;;;;;;;;5043121;28;20427;-79
2022/10/09 04:36:30;;;;;;;6.77;6.17;;;;;;;;;;5046288;28;20433;-80
2022/10/09 04:38:56;;;;;;;8.73;6.47;;;;;;;;;;5043517;28;20528;-80
2022/10/09 04:41:22;;;;;;;6.00;5.60;;;;;;;;;;5045400;28;20853;-80
2022/10/09 04:43:48;;;;;;;6.43;5.93;;;;;;;;;;5043255;28;20465;-79
2022/10/09 04:46:14;;;;;;;6.77;6.23;;;;;;;;;;5038322;28;20737;-80
2022/10/09 04:48:41;;;;;;;6.47;5.97;;;;;;;;;;5042486;28;20448;-80
2022/10/09 04:51:08;;;;;;;6.43;5.90;;;;;;;;;;5045557;28;20409;-80
2022/10/09 04:53:34;;;;;;;7.80;6.60;;;;;;;;;;5042611;28;20277;-81
2022/10/09 04:56:08;;;;;;;7.97;7.30;;;;;;;;;;5046476;28;20794;-80
2022/10/09 04:58:35;;;;;;;6.83;6.13;;;;;;;;;;5043070;28;20811;-80
2022/10/09 05:01:05;;;;;;;7.03;6.40;;;;;;;;;;5046600;28;20536;-80
2022/10/09 05:03:31;;;;;;;9.03;6.73;;;;;;;;;;5036695;28;20472;-80
2022/10/09 05:06:00;;;;;;;9.20;6.93;;;;;;;;;;5045346;28;20755;-80
2022/10/09 05:08:26;;;;;;;9.70;6.83;;;;;;;;;;5040324;28;20457;-80
2022/10/09 05:10:52;;;;;;;11.03;7.00;;;;;;;;;;5046610;28;20779;-80
2022/10/09 05:13:18;;;;;;;8.20;6.30;;;;;;;;;;5037279;28;20490;-80
2022/10/09 05:15:44;;;;;;;7.30;6.60;;;;;;;;;;5025121;28;20702;-80
2022/10/09 05:18:10;;;;;;;12.23;7.80;;;;;;;;;;5041694;28;20449;-79
2022/10/09 05:20:40;;;;;;;13.20;7.67;;;;;;;;;;5046447;28;20405;-80
2022/10/09 05:23:06;;;;;;;9.20;7.10;;;;;;;;;;5023905;28;20486;-80
2022/10/09 05:25:32;;;;;;;7.80;7.03;;;;;;;;;;5045597;28;20423;-80
2022/10/09 05:27:59;;;;;;;11.43;7.13;;;;;;;;;;5043863;28;20414;-80
2022/10/09 05:30:25;;;;;;;11.10;7.57;;;;;;;;;;5045621;28;20907;-79
2022/10/09 05:32:51;;;;;;;7.33;6.60;;;;;;;;;;5045800;28;20519;-80
2022/10/09 05:35:17;;;;;;;9.40;7.00;;;;;;;;;;5022470;28;20859;-81
2022/10/09 05:37:44;;;;;;;9.17;7.13;;;;;;;;;;5045127;28;20545;-80
2022/10/09 05:40:10;;;;;;;7.63;6.93;;;;;;;;;;5042053;28;20449;-80
2022/10/09 05:42:36;;;;;;;8.00;7.10;;;;;;;;;;5045694;28;21006;-81
2022/10/09 05:45:02;;;;;;;8.40;7.53;;;;;;;;;;5040907;28;20517;-80
2022/10/09 05:47:31;;;;;;;8.10;7.30;;;;;;;;;;5045125;28;20504;-81
2022/10/09 05:49:58;;;;;;;7.87;6.90;;;;;;;;;;5026317;28;20435;-78
2022/10/09 05:52:23;;;;;;;7.68;6.30;;;;;;;;;;5044909;28;20495;-79
2022/10/09 05:54:49;;;;;;;6.43;5.83;;;;;;;;;;5042091;28;20195;-79
2022/10/09 05:57:15;;;;;;;6.67;6.27;;;;;;;;;;5045070;28;20418;-79
2022/10/09 05:59:41;;;;;;;8.17;7.17;;;;;;;;;;5028348;28;20457;-79
2022/10/09 06:02:08;;;;;;;7.07;6.38;;;;;;;;;;5044636;28;20425;-79
2022/10/09 06:04:34;;;;;;;10.40;6.23;;;;;;;;;;5041908;28;20282;-80
2022/10/09 06:07:00;;;;;;;7.80;7.10;;;;;;;;;;5045940;28;20740;-80
2022/10/09 06:09:26;;;;;;;14.77;7.10;;;;;;;;;;5056219;28;20454;-79
2022/10/09 06:11:53;;;;;;;6.90;6.27;;;;;;;;;;5067956;28;20471;-80
2022/10/09 06:14:20;;;;;;;25.00;7.45;;;;;;;;;;5041299;28;20436;-80
2022/10/09 06:16:47;;;;;;;8.63;6.93;;;;;;;;;;5045153;28;20186;-80
2022/10/09 06:19:14;;;;;;;24.65;7.50;;;;;;;;;;5042191;28;20797;-80
2022/10/09 06:21:40;;;;;;;8.50;7.73;;;;;;;;;;5045451;28;20266;-80
2022/10/09 06:24:06;;;;;;;15.30;7.90;;;;;;;;;;5041954;28;20471;-79
2022/10/09 06:26:32;;;;;;;11.23;7.80;;;;;;;;;;5045311;28;20413;-79
2022/10/09 06:28:59;;;;;;;9.15;7.70;;;;;;;;;;5041837;28;20466;-80
2022/10/09 06:31:26;;;;;;;8.83;6.70;;;;;;;;;;5045138;28;20229;-80
2022/10/09 06:33:53;;;;;;;11.30;7.30;;;;;;;;;;5042076;28;20434;-80
2022/10/09 06:36:20;;;;;;;6.93;6.30;;;;;;;;;;5045107;28;20410;-80
2022/10/09 06:38:46;;;;;;;9.40;8.20;;;;;;;;;;5041465;28;20461;-80
2022/10/09 06:41:13;;;;;;;8.43;7.70;;;;;;;;;;5045234;28;20788;-78
2022/10/09 06:43:39;;;;;;;8.97;6.57;;;;;;;;;;5041619;28;20477;-79
2022/10/09 06:46:10;;;;;;;7.13;6.53;;;;;;;;;;4690808;28;10000479;-79
2022/10/09 06:48:37;;;;;;;6.37;5.80;;;;;;;;;;5042271;28;20205;-80
2022/10/09 06:51:04;;;;;;;5.63;5.33;;;;;;;;;;5045541;28;20694;-80
2022/10/09 06:53:30;;;;;;;5.97;5.47;;;;;;;;;;5041812;28;20457;-80
2022/10/09 06:55:57;;;;;;;5.90;5.30;;;;;;;;;;5044323;28;20413;-80
2022/10/09 06:58:24;;;;;;;5.50;5.10;;;;;;;;;;5041022;28;20533;-80
2022/10/09 07:00:50;;;;;;;5.73;5.43;;;;;;;;;;5045306;28;20441;-80
2022/10/09 07:03:16;;;;;;;4.73;4.53;;;;;;;;;;5043295;28;20461;-80
2022/10/09 07:05:42;;;;;;;4.30;4.10;;;;;;;;;;5043465;28;20449;-79
2022/10/09 07:08:08;;;;;;;4.47;4.17;;;;;;;;;;5044937;28;20494;-80
2022/10/09 07:10:33;;;;;;;5.07;4.60;;;;;;;;;;5040510;28;20483;-80
2022/10/09 07:12:59;;;;;;;5.23;5.03;;;;;;;;;;5044963;28;20953;-81
2022/10/09 07:15:25;;;;;;;5.80;5.07;;;;;;;;;;5040527;28;20890;-80
2022/10/09 07:17:51;;;;;;;5.60;5.40;;;;;;;;;;5043297;28;20524;-79
2022/10/09 07:20:17;;;;;;;7.20;5.50;;;;;;;;;;5032312;28;20517;-79
2022/10/09 07:22:43;;;;;;;5.20;5.00;;;;;;;;;;5044777;28;20461;-80
2022/10/09 07:25:11;;;;;;;5.23;4.63;;;;;;;;;;5032861;28;20505;-79
2022/10/09 07:27:37;;;;;;;4.63;4.43;;;;;;;;;;5044351;28;20422;-79
2022/10/09 07:30:03;;;;;;;4.87;4.63;;;;;;;;;;5033181;28;20465;-79
2022/10/09 07:32:31;;;;;;;5.13;4.73;;;;;;;;;;5035520;28;20691;-79
2022/10/09 07:34:57;;;;;;;4.67;4.47;;;;;;;;;;5040503;28;20485;-81
2022/10/09 07:37:23;;;;;;;4.70;4.30;;;;;;;;;;5042743;28;20430;-80
2022/10/09 07:39:49;;;;;;;3.73;3.53;;;;;;;;;;5032993;28;20464;-80
2022/10/09 07:42:15;;;;;;;4.40;4.00;;;;;;;;;;5044220;28;20433;-79
2022/10/09 07:44:41;;;;;;;4.57;4.27;;;;;;;;;;5034431;28;20481;-80
2022/10/09 07:47:07;;;;;;;4.10;3.90;;;;;;;;;;5044701;28;20931;-79
2022/10/09 07:49:33;;;;;;;4.20;3.80;;;;;;;;;;5033444;28;20592;-79
2022/10/09 07:51:59;;;;;;;3.83;3.60;;;;;;;;;;5043923;28;20444;-78
2022/10/09 07:54:24;;;;;;;3.83;3.53;;;;;;;;;;5040886;28;20453;-79
2022/10/09 07:56:50;;;;;;;3.97;3.63;;;;;;;;;;5043902;28;20425;-80
2022/10/09 07:59:17;;;;;;;6.87;4.47;;;;;;;;;;5037662;28;20438;-78
2022/10/09 08:01:43;;;;;;;3.87;3.63;;;;;;;;;;5038885;28;20453;-79
2022/10/09 08:04:09;;;;;;;4.57;4.17;;;;;;;;;;5042162;28;20493;-79
2022/10/09 08:06:35;;;;;;;3.73;3.53;;;;;;;;;;5062880;28;20402;-78
2022/10/09 08:09:01;;;;;;;4.30;3.77;;;;;;;;;;5051055;28;20615;-79
2022/10/09 08:13:58;;;;;;;3.60;3.30;;;;;;;;;;5030572;28;20746;-77
2022/10/09 08:16:24;;;;;;;3.93;3.60;;;;;;;;;;5060483;28;21001;-77
2022/10/09 08:18:53;;;;;;;3.10;2.80;;;;;;;;;;5014822;28;20501;-78
2022/10/09 08:21:19;;;;;;;3.30;3.00;;;;;;;;;;5022644;28;20920;-78
2022/10/09 08:23:46;;;;;;;3.33;3.13;;;;;;;;;;5024769;28;20486;-77
2022/10/09 08:26:16;;;;;;;5.20;3.60;;;;;;;;;;5026102;28;20502;-78
2022/10/09 08:28:42;;;;;;;3.50;3.30;;;;;;;;;;5076070;28;20435;-77
2022/10/09 08:31:12;;;;;;;4.03;3.73;;;;;;;;;;5057192;28;20410;-77
2022/10/09 08:33:38;;;;;;;2.40;2.30;;;;;;;;;;5037487;28;20513;-77
2022/10/09 08:36:06;;;;;;;3.43;2.70;;;;;;;;;;5047631;28;20493;-78
2022/10/09 08:38:32;;;;;;;5.23;3.47;;;;;;;;;;5039916;28;20434;-78
2022/10/09 08:41:04;;;;;;;3.37;3.13;;;;;;;;;;5024460;28;20453;-78
2022/10/09 08:43:32;;;;;;;3.83;3.53;;;;;;;;;;5036325;28;20474;-78
2022/10/09 08:46:00;;;;;;;2.60;2.50;;;;;;;;;;5025624;28;20966;-77
2022/10/09 08:48:27;;;;;;;2.83;2.70;;;;;;;;;;5039941;28;20477;-78
2022/10/09 08:50:55;;;;;;;3.80;1.60;;;;;;;;;;5026025;28;20812;-78
2022/10/09 08:53:39;;;;;;;5.50;2.90;;;;;;;;;;5025141;28;20461;-78
2022/10/09 08:56:08;;;;;;;2.90;2.40;;;;;;;;;;5045421;28;20957;-79
2022/10/09 08:58:36;;;;;;;2.40;2.10;;;;;;;;;;4682093;28;10000261;-79
2022/10/09 09:01:02;;;;;;;1.97;1.83;;;;;;;;;;5022208;28;20239;-78
2022/10/09 09:03:40;;;;;;;2.93;1.80;;;;;;;;;;5027840;28;20504;-79
2022/10/09 09:06:09;;;;;;;16.03;2.47;;;;;;;;;;5029089;28;20485;-77
2022/10/09 09:08:38;;;;;;;2.83;2.30;;;;;;;;;;5032262;28;20443;-78
2022/10/09 09:11:13;;;;;;;2.73;2.63;;;;;;;;;;5021386;28;21065;-76
2022/10/09 09:13:54;;;;;;;5.90;2.60;;;;;;;;;;5035517;28;20559;-76
2022/10/09 09:16:28;;;;;;;1.77;1.77;;;;;;;;;;5026081;28;20419;-77
2022/10/09 09:19:09;;;;;;;10.83;3.20;;;;;;;;;;5018138;28;20457;-77
2022/10/09 09:21:47;;;;;;;1.90;1.90;;;;;;;;;;5008021;28;20782;-78
2022/10/09 09:24:18;;;;;;;2.73;2.57;;;;;;;;;;5028133;28;20461;-78
2022/10/09 09:26:47;;;;;;;2.50;2.00;;;;;;;;;;5034035;28;20457;-77
2022/10/09 09:29:17;;;;;;;2.60;2.40;;;;;;;;;;5024614;28;20426;-77
2022/10/09 09:31:45;;;;;;;3.40;1.80;;;;;;;;;;5024012;28;20841;-79
2022/10/09 09:34:20;;;;;;;2.00;1.90;;;;;;;;;;5025461;28;20487;-77
2022/10/09 09:36:49;;;;;;;2.27;2.07;;;;;;;;;;5024927;28;20418;-78
2022/10/09 09:39:15;;;;;;;4.23;1.87;;;;;;;;;;5026304;28;20790;-77
2022/10/09 09:41:42;;;;;;;2.00;1.83;;;;;;;;;;5025630;28;20514;-78
2022/10/09 09:44:12;;;;;;;2.10;1.70;;;;;;;;;;5040193;28;20525;-77
2022/10/09 09:46:39;;;;;;;2.37;1.70;;;;;;;;;;5029514;28;20480;-76
2022/10/09 09:49:16;;;;;;;1.77;1.67;;;;;;;;;;5039253;28;20583;-79
2022/10/09 09:51:42;;;;;;;1.30;1.20;;;;;;;;;;5077688;28;20420;-79
2022/10/09 09:54:28;;;;;;;1.60;1.60;;;;;;;;;;5041375;28;20457;-79
2022/10/09 09:56:57;;;;;;;2.57;1.50;;;;;;;;;;5043137;28;20815;-77
2022/10/09 09:59:25;;;;;;;2.43;1.50;;;;;;;;;;5027670;28;20517;-79
2022/10/09 10:02:11;;;;;;;5.00;2.30;;;;;;;;;;5045562;28;20425;-78
2022/10/09 10:04:37;;;;;;;1.43;1.43;;;;;;;;;;4704011;28;10001475;-79
2022/10/09 10:07:04;;;;;;;2.40;1.70;;;;;;;;;;5021490;28;20513;-80
2022/10/09 10:09:31;;;;;;;1.40;1.40;;;;;;;;;;5061677;28;20438;-79
2022/10/09 10:11:58;;;;;;;1.60;1.50;;;;;;;;;;5020692;28;20557;-78
2022/10/09 10:14:25;;;;;;;1.83;1.67;;;;;;;;;;5024313;28;20429;-79
2022/10/09 10:16:53;;;;;;;1.80;1.70;;;;;;;;;;5022855;28;20929;-79
2022/10/09 10:19:24;;;;;;;2.03;1.50;;;;;;;;;;5034928;28;20492;-79
2022/10/09 10:21:58;;;;;;;1.30;1.30;;;;;;;;;;5028454;28;20536;-79
2022/10/09 10:24:27;;;;;;;3.83;2.90;;;;;;;;;;5047027;28;20735;-79
2022/10/09 10:26:56;;;;;;;1.73;1.73;;;;;;;;;;5049337;28;20622;-78
2022/10/09 10:29:22;;;;;;;1.40;1.40;;;;;;;;;;5046555;28;20449;-78
2022/10/09 10:32:07;;;;;;;1.23;1.23;;;;;;;;;;5055227;28;20483;-79
2022/10/09 10:34:53;;;;;;;2.07;1.97;;;;;;;;;;5046027;28;20436;-78
2022/10/09 10:37:37;;;;;;;2.60;2.60;;;;;;;;;;5049458;28;20444;-78
2022/10/09 10:40:18;;;;;;;1.60;1.23;;;;;;;;;;5023708;28;21006;-79
2022/10/09 10:42:44;;;;;;;1.70;1.60;;;;;;;;;;5033632;28;20465;-79
2022/10/09 10:45:13;;;;;;;1.60;1.60;;;;;;;;;;5037255;28;21002;-79
2022/10/09 10:47:42;;;;;;;1.70;1.60;;;;;;;;;;5032593;28;20445;-79
2022/10/09 10:50:12;;;;;;;2.77;1.17;;;;;;;;;;5067497;28;20981;-80
2022/10/09 10:52:50;;;;;;;1.40;1.30;;;;;;;;;;5016679;28;20437;-79
2022/10/09 10:55:16;;;;;;;3.17;1.37;;;;;;;;;;5027079;28;20425;-81
2022/10/09 10:57:45;;;;;;;2.03;1.80;;;;;;;;;;5032310;28;20467;-79
2022/10/09 11:00:12;;;;;;;1.83;1.43;;;;;;;;;;5036538;28;20520;-81
2022/10/09 11:02:57;;;;;;;4.03;2.20;;;;;;;;;;5031421;28;20461;-79
2022/10/09 11:05:25;;;;;;;2.30;1.43;;;;;;;;;;5037941;28;20447;-79
2022/10/09 11:08:05;;;;;;;4.63;1.80;;;;;;;;;;5032849;28;20552;-78
2022/10/09 11:10:31;;;;;;;2.77;2.03;;;;;;;;;;5037650;28;20851;-78
2022/10/09 11:13:12;;;;;;;3.80;3.60;;;;;;;;;;5030096;28;20500;-79
2022/10/09 11:15:56;;;;;;;2.20;1.57;;;;;;;;;;5046709;28;20406;-77
2022/10/09 11:18:25;;;;;;;1.80;1.50;;;;;;;;;;5042597;28;20455;-80
2022/10/09 11:20:51;;;;;;;1.20;1.20;;;;;;;;;;5029059;28;20425;-79
2022/10/09 11:23:50;;;;;;;1.30;1.30;;;;;;;;;;5078399;28;20457;-79
2022/10/09 11:26:31;;;;;;;1.90;1.90;;;;;;;;;;5014185;28;20525;-77
2022/10/09 11:29:01;;;;;;;1.90;1.60;;;;;;;;;;5041546;28;20441;-78
2022/10/09 11:31:27;;;;;;;2.00;1.20;;;;;;;;;;5057936;28;20454;-79
2022/10/09 11:33:57;;;;;;;1.40;1.40;;;;;;;;;;5045216;28;20499;-80
2022/10/09 11:36:32;;;;;;;1.80;1.40;;;;;;;;;;5025994;28;20443;-78
2022/10/09 11:39:00;;;;;;;5.90;2.23;;;;;;;;;;5045035;28;20900;-80
2022/10/09 11:41:27;;;;;;;1.80;1.60;;;;;;;;;;5026003;28;20557;-79
2022/10/09 11:44:05;;;;;;;1.90;1.80;;;;;;;;;;5044756;28;20478;-78
2022/10/09 11:46:34;;;;;;;1.83;1.60;;;;;;;;;;5025615;28;20439;-79
2022/10/09 11:49:06;;;;;;;1.23;1.23;;;;;;;;;;5043550;28;20534;-78
2022/10/09 11:51:35;;;;;;;1.80;1.70;;;;;;;;;;5024583;28;20883;-79
2022/10/09 11:54:03;;;;;;;1.90;1.80;;;;;;;;;;5044636;28;20517;-79
2022/10/09 11:56:30;;;;;;;2.00;1.90;;;;;;;;;;5025795;28;20506;-79
2022/10/09 11:59:04;;;;;;;1.47;1.37;;;;;;;;;;5045064;28;21019;-78
2022/10/09 12:01:41;;;;;;;1.97;1.80;;;;;;;;;;5058980;28;20962;-80
2022/10/09 12:04:15;;;;;;;1.43;1.33;;;;;;;;;;5044259;28;21088;-80
2022/10/09 12:07:05;;;;;;;36.03;32.50;;;;;;;;;;5025486;28;20454;-82
2022/10/09 12:09:37;;;;;;;2.63;1.87;;;;;;;;;;5016501;28;20534;-80
2022/10/09 12:12:15;;;;;;;2.50;2.43;;;;;;;;;;5043594;28;20492;-78
2022/10/09 12:14:42;;;;;;;1.63;1.50;;;;;;;;;;5041157;28;20453;-79
2022/10/09 12:17:15;;;;;;;1.97;1.97;;;;;;;;;;5044857;28;20490;-77
2022/10/09 12:19:42;;;;;;;1.70;1.70;;;;;;;;;;5042468;28;20486;-78
2022/10/09 12:22:22;;;;;;;1.53;1.43;;;;;;;;;;5046943;28;20414;-78
2022/10/09 12:24:49;;;;;;;1.43;1.43;;;;;;;;;;5045336;28;20972;-77
2022/10/09 12:27:24;;;;;;;1.30;1.30;;;;;;;;;;5078664;28;20449;-78
2022/10/09 12:29:54;;;;;;;1.70;1.60;;;;;;;;;;5011596;28;21032;-77
2022/10/09 12:32:26;;;;;;;1.40;1.40;;;;;;;;;;5046800;28;20696;-79
2022/10/09 12:34:53;;;;;;;1.20;1.07;;;;;;;;;;5045295;28;20438;-79
2022/10/09 12:37:21;;;;;;;1.33;1.33;;;;;;;;;;5048209;28;20902;-78
2022/10/09 12:39:47;;;;;;;1.40;1.30;;;;;;;;;;5046049;28;20917;-77
2022/10/09 12:42:21;;;;;;;1.60;1.53;;;;;;;;;;5061673;28;20808;-78
2022/10/09 12:44:48;;;;;;;1.80;1.30;;;;;;;;;;5048784;28;20949;-78
2022/10/09 12:47:25;;;;;;;1.67;1.57;;;;;;;;;;5078812;28;20969;-78
2022/10/09 12:49:56;;;;;;;1.90;1.70;;;;;;;;;;5042745;28;20433;-80
2022/10/09 12:52:22;;;;;;;1.83;1.73;;;;;;;;;;5044773;28;20482;-79
2022/10/09 12:54:48;;;;;;;1.73;1.63;;;;;;;;;;5039953;28;20437;-80
2022/10/09 12:57:15;;;;;;;4.47;1.63;;;;;;;;;;5026138;28;21114;-78
2022/10/09 12:59:42;;;;;;;1.00;1.00;;;;;;;;;;5041377;28;20480;-78
2022/10/09 13:02:10;;;;;;;1.40;1.40;;;;;;;;;;5045689;28;20522;-77
2022/10/09 13:04:36;;;;;;;1.00;1.00;;;;;;;;;;5038668;28;20515;-79
2022/10/09 13:07:06;;;;;;;1.30;1.30;;;;;;;;;;5046591;28;20421;-78
2022/10/09 13:09:37;;;;;;;1.40;1.30;;;;;;;;;;5040275;28;20432;-78
2022/10/09 13:12:12;;;;;;;1.30;1.30;;;;;;;;;;5073765;28;20516;-78
2022/10/09 13:14:41;;;;;;;1.40;1.30;;;;;;;;;;5036833;28;20441;-78
2022/10/09 13:17:21;;;;;;;2.20;2.10;;;;;;;;;;5022577;28;20426;-78
2022/10/09 13:19:51;;;;;;;2.77;1.83;;;;;;;;;;5035766;28;20437;-79
2022/10/09 13:22:19;;;;;;;2.23;1.50;;;;;;;;;;5025590;28;20433;-79
2022/10/09 13:24:46;;;;;;;1.40;1.30;;;;;;;;;;5039034;28;20498;-79
2022/10/09 13:27:13;;;;;;;1.40;1.40;;;;;;;;;;5045000;28;20782;-79
2022/10/09 13:29:40;;;;;;;1.60;1.60;;;;;;;;;;5039812;28;20428;-78
2022/10/09 13:32:07;;;;;;;1.80;1.80;;;;;;;;;;5045266;28;20414;-79
2022/10/09 13:34:33;;;;;;;1.70;1.50;;;;;;;;;;5039126;28;20454;-79
2022/10/09 13:36:59;;;;;;;1.57;1.47;;;;;;;;;;5042791;28;20537;-78
2022/10/09 13:39:26;;;;;;;1.80;1.60;;;;;;;;;;5038211;28;20438;-79
2022/10/09 13:41:54;;;;;;;1.50;1.40;;;;;;;;;;5023871;28;20911;-79
2022/10/09 13:44:20;;;;;;;1.47;1.47;;;;;;;;;;5043013;28;20469;-82
2022/10/09 13:46:46;;;;;;;1.80;1.50;;;;;;;;;;5023866;28;20501;-80
2022/10/09 13:49:12;;;;;;;2.67;1.80;;;;;;;;;;5042153;28;20954;-80
2022/10/09 13:51:38;;;;;;;1.77;1.67;;;;;;;;;;5023838;28;20442;-77
2022/10/09 13:54:04;;;;;;;1.20;1.20;;;;;;;;;;5042772;28;20501;-80
2022/10/09 13:56:31;;;;;;;1.80;1.70;;;;;;;;;;5023223;28;20652;-78
2022/10/09 13:58:57;;;;;;;4.10;3.60;;;;;;;;;;5042880;28;20487;-82
2022/10/09 14:01:23;;;;;;;2.20;1.93;;;;;;;;;;5023880;28;20530;-79
2022/10/09 14:03:49;;;;;;;3.20;2.60;;;;;;;;;;5042289;28;21031;-80
2022/10/09 14:06:15;;;;;;;2.70;2.70;;;;;;;;;;5023842;28;20637;-79
2022/10/09 14:08:41;;;;;;;2.30;2.20;;;;;;;;;;5040559;28;20541;-80
2022/10/09 14:11:07;;;;;;;1.70;1.70;;;;;;;;;;5024236;28;20461;-77
2022/10/09 14:13:33;;;;;;;1.97;1.87;;;;;;;;;;5041811;28;20457;-77
2022/10/09 14:15:59;;;;;;;2.63;2.43;;;;;;;;;;5032394;28;20511;-78
2022/10/09 14:18:25;;;;;;;1.77;1.70;;;;;;;;;;5028312;28;20808;-77
2022/10/09 14:20:51;;;;;;;2.90;2.80;;;;;;;;;;5031897;28;20446;-77
2022/10/09 14:23:17;;;;;;;2.60;2.50;;;;;;;;;;5059031;28;20831;-77
2022/10/09 14:25:43;;;;;;;1.50;1.50;;;;;;;;;;5030322;28;20698;-77
2022/10/09 14:28:09;;;;;;;1.50;1.50;;;;;;;;;;5042194;28;20425;-78
2022/10/09 14:30:39;;;;;;;3.43;3.17;;;;;;;;;;5061471;28;20545;-77
2022/10/09 14:33:04;;;;;;;2.20;2.13;;;;;;;;;;5071999;28;20941;-77
2022/10/09 14:35:30;;;;;;;3.87;3.57;;;;;;;;;;5027781;28;20425;-77
2022/10/09 14:37:56;;;;;;;1.87;1.77;;;;;;;;;;5042048;28;20914;-77
2022/10/09 14:40:22;;;;;;;5.90;2.03;;;;;;;;;;5026977;28;20940;-77
2022/10/09 14:42:48;;;;;;;2.03;1.20;;;;;;;;;;5045062;28;20854;-78
2022/10/09 14:45:14;;;;;;;1.73;1.73;;;;;;;;;;5020338;28;20662;-78
2022/10/09 14:47:40;;;;;;;1.43;1.33;;;;;;;;;;5047059;28;20490;-79
2022/10/09 14:50:06;;;;;;;1.97;1.97;;;;;;;;;;5044436;28;20788;-76